sensor_id;sensor_type;location;lat;lon;timestamp;pressure;altitude;pressure_sealevel;temperature;humidity
61357;BME280;47227;46.752;23.576;2023-05-01T00:02:20;96385.49;;;9.03;74.38
61357;BME280;47227;46.752;23.576;2023-05-01T00:04:47;96387.13;;;9.03;74.68
61357;BME280;47227;46.752;23.576;2023-05-01T00:07:14;96386.08;;;9.03;74.55
61357;BME280;47227;46.752;23.576;2023-05-01T00:09:40;96387.37;;;9.06;75.11
61357;BME280;47227;46.752;23.576;2023-05-01T00:12:07;96386.67;;;9.12;75.34
61357;BME280;47227;46.752;23.576;2023-05-01T00:14:33;96386.92;;;9.17;75.35
61357;BME280;47227;46.752;23.576;2023-05-01T00:17:00;96384.02;;;9.21;75.47
61357;BME280;47227;46.752;23.576;2023-05-01T00:19:27;96389.02;;;9.25;75.40
61357;BME280;47227;46.752;23.576;2023-05-01T00:21:53;96391.33;;;9.28;75.18
61357;BME280;47227;46.752;23.576;2023-05-01T00:24:20;96392.45;;;9.31;75.58
61357;BME280;47227;46.752;23.576;2023-05-01T00:26:46;96391.81;;;9.29;75.45
61357;BME280;47227;46.752;23.576;2023-05-01T00:29:13;96389.74;;;9.25;75.10
61357;BME280;47227;46.752;23.576;2023-05-01T00:31:40;96391.59;;;9.20;75.19
61357;BME280;47227;46.752;23.576;2023-05-01T00:34:09;96398.59;;;9.14;75.34
61357;BME280;47227;46.752;23.576;2023-05-01T00:36:36;96396.88;;;9.05;75.40
61357;BME280;47227;46.752;23.576;2023-05-01T00:39:03;96399.60;;;8.97;75.34
61357;BME280;47227;46.752;23.576;2023-05-01T00:41:29;96401.36;;;8.90;75.46
61357;BME280;47227;46.752;23.576;2023-05-01T00:43:56;96400.90;;;8.82;75.59
61357;BME280;47227;46.752;23.576;2023-05-01T00:46:23;96400.56;;;8.75;75.61
61357;BME280;47227;46.752;23.576;2023-05-01T00:48:51;96400.21;;;8.69;75.85
61357;BME280;47227;46.752;23.576;2023-05-01T00:51:19;96402.90;;;8.61;75.78
61357;BME280;47227;46.752;23.576;2023-05-01T00:53:47;96403.11;;;8.54;76.26
61357;BME280;47227;46.752;23.576;2023-05-01T00:56:15;96402.14;;;8.48;76.19
61357;BME280;47227;46.752;23.576;2023-05-01T00:58:44;96406.49;;;8.40;76.27
61357;BME280;47227;46.752;23.576;2023-05-01T01:01:12;96403.76;;;8.33;76.26
61357;BME280;47227;46.752;23.576;2023-05-01T01:03:39;96409.48;;;8.28;76.48
61357;BME280;47227;46.752;23.576;2023-05-01T01:06:14;96409.92;;;8.23;76.60
61357;BME280;47227;46.752;23.576;2023-05-01T01:08:58;96407.58;;;8.21;76.65
61357;BME280;47227;46.752;23.576;2023-05-01T01:11:39;96408.10;;;8.21;77.60
61357;BME280;47227;46.752;23.576;2023-05-01T01:14:14;96409.94;;;8.22;77.28
61357;BME280;47227;46.752;23.576;2023-05-01T01:16:53;96411.55;;;8.24;77.42
61357;BME280;47227;46.752;23.576;2023-05-01T01:22:26;96411.60;;;8.33;77.86
61357;BME280;47227;46.752;23.576;2023-05-01T01:28:15;96411.35;;;8.36;77.83
61357;BME280;47227;46.752;23.576;2023-05-01T01:31:04;96415.12;;;8.39;77.75
61357;BME280;47227;46.752;23.576;2023-05-01T01:33:53;96417.50;;;8.42;77.85
61357;BME280;47227;46.752;23.576;2023-05-01T01:36:31;96414.38;;;8.42;78.27
61357;BME280;47227;46.752;23.576;2023-05-01T01:39:08;96410.52;;;8.40;77.99
61357;BME280;47227;46.752;23.576;2023-05-01T01:41:39;96410.78;;;8.39;78.06
61357;BME280;47227;46.752;23.576;2023-05-01T01:44:15;96414.67;;;8.36;77.93
61357;BME280;47227;46.752;23.576;2023-05-01T01:46:47;96414.08;;;8.32;77.80
61357;BME280;47227;46.752;23.576;2023-05-01T01:49:20;96415.80;;;8.27;77.63
61357;BME280;47227;46.752;23.576;2023-05-01T01:51:49;96420.73;;;8.23;77.56
61357;BME280;47227;46.752;23.576;2023-05-01T01:54:22;96418.79;;;8.17;77.80
61357;BME280;47227;46.752;23.576;2023-05-01T01:56:55;96421.98;;;8.13;77.99
61357;BME280;47227;46.752;23.576;2023-05-01T01:59:25;96423.15;;;8.09;78.06
61357;BME280;47227;46.752;23.576;2023-05-01T02:01:54;96417.91;;;8.06;78.07
61357;BME280;47227;46.752;23.576;2023-05-01T02:04:22;96420.23;;;8.02;77.90
61357;BME280;47227;46.752;23.576;2023-05-01T02:06:50;96420.29;;;7.98;77.98
61357;BME280;47227;46.752;23.576;2023-05-01T02:09:19;96420.75;;;7.96;77.93
61357;BME280;47227;46.752;23.576;2023-05-01T02:11:48;96413.18;;;7.94;78.71
61357;BME280;47227;46.752;23.576;2023-05-01T02:14:15;96415.17;;;7.94;78.87
61357;BME280;47227;46.752;23.576;2023-05-01T02:16:44;96417.17;;;7.94;78.38
61357;BME280;47227;46.752;23.576;2023-05-01T02:19:13;96415.26;;;7.95;79.12
61357;BME280;47227;46.752;23.576;2023-05-01T02:21:41;96410.95;;;7.96;78.41
61357;BME280;47227;46.752;23.576;2023-05-01T02:24:09;96409.22;;;7.96;78.17
61357;BME280;47227;46.752;23.576;2023-05-01T02:26:40;96410.70;;;7.95;78.36
61357;BME280;47227;46.752;23.576;2023-05-01T02:29:09;96411.08;;;7.91;78.17
61357;BME280;47227;46.752;23.576;2023-05-01T02:31:36;96416.42;;;7.86;78.19
61357;BME280;47227;46.752;23.576;2023-05-01T02:34:03;96415.27;;;7.80;78.23
61357;BME280;47227;46.752;23.576;2023-05-01T02:36:29;96414.93;;;7.74;78.26
61357;BME280;47227;46.752;23.576;2023-05-01T02:38:59;96418.05;;;7.67;78.03
61357;BME280;47227;46.752;23.576;2023-05-01T02:41:27;96415.16;;;7.59;78.08
61357;BME280;47227;46.752;23.576;2023-05-01T02:44:00;96417.56;;;7.51;78.04
61357;BME280;47227;46.752;23.576;2023-05-01T02:46:32;96421.16;;;7.45;78.13
61357;BME280;47227;46.752;23.576;2023-05-01T02:49:02;96422.41;;;7.36;78.12
61357;BME280;47227;46.752;23.576;2023-05-01T02:51:29;96423.52;;;7.28;78.33
61357;BME280;47227;46.752;23.576;2023-05-01T02:53:58;96424.74;;;7.21;78.40
61357;BME280;47227;46.752;23.576;2023-05-01T02:56:27;96425.09;;;7.16;78.46
61357;BME280;47227;46.752;23.576;2023-05-01T02:58:54;96427.95;;;7.12;78.98
61357;BME280;47227;46.752;23.576;2023-05-01T03:01:22;96425.55;;;7.08;79.27
61357;BME280;47227;46.752;23.576;2023-05-01T03:03:49;96426.67;;;7.05;79.40
61357;BME280;47227;46.752;23.576;2023-05-01T03:06:15;96426.61;;;7.02;79.83
61357;BME280;47227;46.752;23.576;2023-05-01T03:08:42;96424.94;;;7.00;79.66
61357;BME280;47227;46.752;23.576;2023-05-01T03:11:09;96428.52;;;7.00;79.83
61357;BME280;47227;46.752;23.576;2023-05-01T03:13:35;96433.11;;;6.98;80.01
61357;BME280;47227;46.752;23.576;2023-05-01T03:16:03;96436.58;;;6.97;80.18
61357;BME280;47227;46.752;23.576;2023-05-01T03:18:29;96438.29;;;6.94;80.46
61357;BME280;47227;46.752;23.576;2023-05-01T03:20:56;96440.89;;;6.91;80.36
61357;BME280;47227;46.752;23.576;2023-05-01T03:23:24;96445.23;;;6.87;80.57
61357;BME280;47227;46.752;23.576;2023-05-01T03:25:51;96442.63;;;6.83;80.12
61357;BME280;47227;46.752;23.576;2023-05-01T03:28:17;96444.68;;;6.79;80.38
61357;BME280;47227;46.752;23.576;2023-05-01T03:30:45;96449.34;;;6.75;80.13
61357;BME280;47227;46.752;23.576;2023-05-01T03:33:12;96452.27;;;6.72;80.36
61357;BME280;47227;46.752;23.576;2023-05-01T03:35:39;96453.88;;;6.68;80.36
61357;BME280;47227;46.752;23.576;2023-05-01T03:38:06;96457.29;;;6.65;80.11
61357;BME280;47227;46.752;23.576;2023-05-01T03:40:53;96457.19;;;6.61;80.74
61357;BME280;47227;46.752;23.576;2023-05-01T03:43:33;96455.02;;;6.59;80.28
61357;BME280;47227;46.752;23.576;2023-05-01T03:46:04;96457.80;;;6.57;80.30
61357;BME280;47227;46.752;23.576;2023-05-01T03:48:30;96458.27;;;6.59;80.29
61357;BME280;47227;46.752;23.576;2023-05-01T03:50:57;96454.69;;;6.63;80.39
61357;BME280;47227;46.752;23.576;2023-05-01T03:53:24;96454.81;;;6.70;80.28
61357;BME280;47227;46.752;23.576;2023-05-01T03:55:50;96461.70;;;6.79;80.16
61357;BME280;47227;46.752;23.576;2023-05-01T03:58:18;96459.66;;;6.88;81.24
61357;BME280;47227;46.752;23.576;2023-05-01T04:00:44;96464.14;;;6.96;80.96
61357;BME280;47227;46.752;23.576;2023-05-01T04:03:11;96463.02;;;7.03;80.98
61357;BME280;47227;46.752;23.576;2023-05-01T04:05:39;96458.29;;;7.09;81.05
61357;BME280;47227;46.752;23.576;2023-05-01T04:08:05;96457.70;;;7.15;80.96
61357;BME280;47227;46.752;23.576;2023-05-01T04:10:32;96460.61;;;7.22;80.87
61357;BME280;47227;46.752;23.576;2023-05-01T04:13:02;96462.20;;;7.26;80.73
61357;BME280;47227;46.752;23.576;2023-05-01T04:15:30;96464.33;;;7.30;80.63
61357;BME280;47227;46.752;23.576;2023-05-01T04:17:56;96466.54;;;7.31;80.55
61357;BME280;47227;46.752;23.576;2023-05-01T04:20:23;96468.75;;;7.34;80.38
61357;BME280;47227;46.752;23.576;2023-05-01T04:22:50;96467.92;;;7.34;80.31
61357;BME280;47227;46.752;23.576;2023-05-01T04:25:17;96466.90;;;7.35;79.82
61357;BME280;47227;46.752;23.576;2023-05-01T04:27:44;96472.94;;;7.32;79.93
61357;BME280;47227;46.752;23.576;2023-05-01T04:30:11;96479.22;;;7.31;79.68
61357;BME280;47227;46.752;23.576;2023-05-01T04:32:37;96479.48;;;7.31;79.48
61357;BME280;47227;46.752;23.576;2023-05-01T04:35:05;96484.25;;;7.31;79.30
61357;BME280;47227;46.752;23.576;2023-05-01T04:37:32;96491.95;;;7.32;79.40
61357;BME280;47227;46.752;23.576;2023-05-01T04:39:58;96494.58;;;7.30;79.81
61357;BME280;47227;46.752;23.576;2023-05-01T04:42:30;96498.27;;;7.30;79.28
61357;BME280;47227;46.752;23.576;2023-05-01T04:44:57;96501.01;;;7.30;79.42
61357;BME280;47227;46.752;23.576;2023-05-01T04:47:27;96505.11;;;7.32;79.11
61357;BME280;47227;46.752;23.576;2023-05-01T04:49:54;96509.11;;;7.35;79.19
61357;BME280;47227;46.752;23.576;2023-05-01T04:52:21;96506.69;;;7.36;79.05
61357;BME280;47227;46.752;23.576;2023-05-01T04:54:51;96510.98;;;7.41;78.67
61357;BME280;47227;46.752;23.576;2023-05-01T04:57:18;96511.02;;;7.46;78.42
61357;BME280;47227;46.752;23.576;2023-05-01T04:59:45;96511.98;;;7.54;78.12
61357;BME280;47227;46.752;23.576;2023-05-01T05:02:12;96514.80;;;7.63;77.95
61357;BME280;47227;46.752;23.576;2023-05-01T05:04:39;96515.54;;;7.75;78.05
61357;BME280;47227;46.752;23.576;2023-05-01T05:07:06;96517.36;;;7.88;77.80
61357;BME280;47227;46.752;23.576;2023-05-01T05:09:54;96518.98;;;8.03;77.54
61357;BME280;47227;46.752;23.576;2023-05-01T05:12:22;96520.61;;;8.17;77.59
61357;BME280;47227;46.752;23.576;2023-05-01T05:14:49;96525.40;;;8.32;77.22
61357;BME280;47227;46.752;23.576;2023-05-01T05:17:16;96524.36;;;8.45;76.89
61357;BME280;47227;46.752;23.576;2023-05-01T05:19:42;96524.66;;;8.56;76.67
61357;BME280;47227;46.752;23.576;2023-05-01T05:22:09;96522.54;;;8.66;76.12
61357;BME280;47227;46.752;23.576;2023-05-01T05:24:53;96529.69;;;8.77;75.85
61357;BME280;47227;46.752;23.576;2023-05-01T05:27:21;96531.77;;;8.84;75.00
61357;BME280;47227;46.752;23.576;2023-05-01T05:29:49;96535.73;;;8.91;75.19
61357;BME280;47227;46.752;23.576;2023-05-01T05:32:15;96533.77;;;8.97;74.70
61357;BME280;47227;46.752;23.576;2023-05-01T05:34:42;96540.15;;;9.05;74.53
61357;BME280;47227;46.752;23.576;2023-05-01T05:37:11;96548.08;;;9.12;74.29
61357;BME280;47227;46.752;23.576;2023-05-01T05:39:43;96550.52;;;9.13;72.98
61357;BME280;47227;46.752;23.576;2023-05-01T05:42:10;96552.64;;;9.17;73.05
61357;BME280;47227;46.752;23.576;2023-05-01T05:44:36;96552.81;;;9.18;72.68
61357;BME280;47227;46.752;23.576;2023-05-01T05:47:04;96555.62;;;9.22;72.88
61357;BME280;47227;46.752;23.576;2023-05-01T05:49:32;96558.31;;;9.23;72.87
61357;BME280;47227;46.752;23.576;2023-05-01T05:51:58;96559.08;;;9.25;73.01
61357;BME280;47227;46.752;23.576;2023-05-01T05:54:25;96557.72;;;9.27;73.29
61357;BME280;47227;46.752;23.576;2023-05-01T05:56:52;96556.13;;;9.31;73.69
61357;BME280;47227;46.752;23.576;2023-05-01T05:59:19;96560.30;;;9.42;73.51
61357;BME280;47227;46.752;23.576;2023-05-01T06:01:46;96566.45;;;9.51;73.76
61357;BME280;47227;46.752;23.576;2023-05-01T06:04:13;96566.42;;;9.61;73.47
61357;BME280;47227;46.752;23.576;2023-05-01T06:06:40;96568.95;;;9.70;73.43
61357;BME280;47227;46.752;23.576;2023-05-01T06:09:07;96569.48;;;9.79;72.99
61357;BME280;47227;46.752;23.576;2023-05-01T06:11:34;96571.05;;;9.88;72.96
61357;BME280;47227;46.752;23.576;2023-05-01T06:14:01;96569.47;;;9.96;72.97
61357;BME280;47227;46.752;23.576;2023-05-01T06:16:29;96568.79;;;10.05;72.81
61357;BME280;47227;46.752;23.576;2023-05-01T06:18:55;96569.08;;;10.13;72.63
61357;BME280;47227;46.752;23.576;2023-05-01T06:21:22;96572.45;;;10.23;72.45
61357;BME280;47227;46.752;23.576;2023-05-01T06:23:49;96576.05;;;10.33;72.40
61357;BME280;47227;46.752;23.576;2023-05-01T06:26:22;96576.17;;;10.41;72.85
61357;BME280;47227;46.752;23.576;2023-05-01T06:28:49;96577.22;;;10.51;72.65
61357;BME280;47227;46.752;23.576;2023-05-01T06:31:15;96581.73;;;10.65;72.46
61357;BME280;47227;46.752;23.576;2023-05-01T06:33:47;96580.38;;;10.77;72.88
61357;BME280;47227;46.752;23.576;2023-05-01T06:36:26;96579.40;;;10.78;72.55
61357;BME280;47227;46.752;23.576;2023-05-01T06:38:53;96575.33;;;10.87;72.56
61357;BME280;47227;46.752;23.576;2023-05-01T06:41:19;96575.69;;;11.01;72.48
61357;BME280;47227;46.752;23.576;2023-05-01T06:43:47;96572.92;;;11.19;72.53
61357;BME280;47227;46.752;23.576;2023-05-01T06:46:14;96576.39;;;11.32;71.39
61357;BME280;47227;46.752;23.576;2023-05-01T06:48:41;96575.36;;;11.42;70.45
61357;BME280;47227;46.752;23.576;2023-05-01T06:51:07;96572.91;;;11.52;70.60
61357;BME280;47227;46.752;23.576;2023-05-01T06:53:34;96572.22;;;11.62;70.03
61357;BME280;47227;46.752;23.576;2023-05-01T06:56:02;96572.27;;;11.66;68.88
61357;BME280;47227;46.752;23.576;2023-05-01T06:58:28;96575.43;;;11.72;69.28
61357;BME280;47227;46.752;23.576;2023-05-01T07:00:55;96576.11;;;11.85;69.64
61357;BME280;47227;46.752;23.576;2023-05-01T07:03:22;96578.34;;;11.93;68.58
61357;BME280;47227;46.752;23.576;2023-05-01T07:05:49;96580.87;;;11.97;68.19
61357;BME280;47227;46.752;23.576;2023-05-01T07:08:16;96578.86;;;12.07;68.70
61357;BME280;47227;46.752;23.576;2023-05-01T07:10:42;96577.87;;;12.19;68.84
61357;BME280;47227;46.752;23.576;2023-05-01T07:13:09;96576.13;;;12.25;67.52
61357;BME280;47227;46.752;23.576;2023-05-01T07:15:36;96577.31;;;12.22;67.21
61357;BME280;47227;46.752;23.576;2023-05-01T07:18:03;96574.34;;;12.31;67.34
61357;BME280;47227;46.752;23.576;2023-05-01T07:20:31;96575.31;;;12.41;66.79
61357;BME280;47227;46.752;23.576;2023-05-01T07:22:58;96573.08;;;12.49;66.94
61357;BME280;47227;46.752;23.576;2023-05-01T07:25:27;96572.14;;;12.60;67.17
61357;BME280;47227;46.752;23.576;2023-05-01T08:11:55;96581.81;;;14.31;61.06
61357;BME280;47227;46.752;23.576;2023-05-01T08:14:22;96583.55;;;14.44;61.00
61357;BME280;47227;46.752;23.576;2023-05-01T08:16:49;96583.73;;;14.57;60.55
61357;BME280;47227;46.752;23.576;2023-05-01T08:19:20;96586.42;;;14.69;60.24
61357;BME280;47227;46.752;23.576;2023-05-01T08:21:47;96586.20;;;14.83;59.76
61357;BME280;47227;46.752;23.576;2023-05-01T08:24:13;96583.48;;;14.97;58.57
61357;BME280;47227;46.752;23.576;2023-05-01T08:26:40;96585.02;;;15.04;58.37
61357;BME280;47227;46.752;23.576;2023-05-01T08:29:07;96582.75;;;15.13;58.28
61357;BME280;47227;46.752;23.576;2023-05-01T08:31:33;96583.58;;;15.24;57.99
61357;BME280;47227;46.752;23.576;2023-05-01T08:34:03;96584.85;;;15.40;57.89
61357;BME280;47227;46.752;23.576;2023-05-01T08:36:30;96585.69;;;15.53;56.84
61357;BME280;47227;46.752;23.576;2023-05-01T08:38:57;96586.86;;;15.53;53.33
61357;BME280;47227;46.752;23.576;2023-05-01T08:41:26;96588.21;;;15.60;54.31
61357;BME280;47227;46.752;23.576;2023-05-01T08:43:55;96590.98;;;15.66;53.01
61357;BME280;47227;46.752;23.576;2023-05-01T08:46:28;96592.95;;;15.80;54.18
61357;BME280;47227;46.752;23.576;2023-05-01T08:48:59;96597.41;;;15.96;52.80
61357;BME280;47227;46.752;23.576;2023-05-01T08:51:30;96595.17;;;15.90;51.01
61357;BME280;47227;46.752;23.576;2023-05-01T08:54:00;96596.55;;;16.01;52.86
61357;BME280;47227;46.752;23.576;2023-05-01T08:56:29;96596.18;;;16.17;52.40
61357;BME280;47227;46.752;23.576;2023-05-01T08:58:58;96594.42;;;16.34;51.75
61357;BME280;47227;46.752;23.576;2023-05-01T09:01:27;96590.36;;;16.52;51.40
61357;BME280;47227;46.752;23.576;2023-05-01T09:03:55;96580.38;;;16.69;51.15
61357;BME280;47227;46.752;23.576;2023-05-01T09:06:24;96578.19;;;16.86;49.28
61357;BME280;47227;46.752;23.576;2023-05-01T09:08:53;96578.36;;;17.01;49.27
61357;BME280;47227;46.752;23.576;2023-05-01T09:11:21;96576.95;;;17.20;49.13
61357;BME280;47227;46.752;23.576;2023-05-01T09:13:48;96574.11;;;17.41;48.91
61357;BME280;47227;46.752;23.576;2023-05-01T09:16:15;96578.06;;;17.57;48.37
61357;BME280;47227;46.752;23.576;2023-05-01T09:18:41;96578.22;;;17.74;48.14
61357;BME280;47227;46.752;23.576;2023-05-01T09:21:08;96577.70;;;17.86;46.84
61357;BME280;47227;46.752;23.576;2023-05-01T09:23:35;96581.80;;;18.01;47.46
61357;BME280;47227;46.752;23.576;2023-05-01T09:26:04;96579.82;;;18.17;47.19
61357;BME280;47227;46.752;23.576;2023-05-01T09:28:43;96577.14;;;18.30;44.50
61357;BME280;47227;46.752;23.576;2023-05-01T09:31:22;96576.63;;;18.42;44.49
61357;BME280;47227;46.752;23.576;2023-05-01T09:33:52;96576.23;;;18.56;44.88
61357;BME280;47227;46.752;23.576;2023-05-01T09:36:22;96575.58;;;18.68;43.79
61357;BME280;47227;46.752;23.576;2023-05-01T09:38:48;96575.52;;;18.80;44.05
61357;BME280;47227;46.752;23.576;2023-05-01T09:41:15;96577.48;;;18.95;44.21
61357;BME280;47227;46.752;23.576;2023-05-01T09:43:48;96572.54;;;19.15;44.66
61357;BME280;47227;46.752;23.576;2023-05-01T09:46:16;96572.71;;;19.34;44.05
61357;BME280;47227;46.752;23.576;2023-05-01T09:48:54;96571.95;;;19.48;42.90
61357;BME280;47227;46.752;23.576;2023-05-01T09:51:33;96570.55;;;19.62;42.73
61357;BME280;47227;46.752;23.576;2023-05-01T09:54:01;96569.97;;;19.74;41.07
61357;BME280;47227;46.752;23.576;2023-05-01T09:56:29;96570.19;;;19.84;41.34
61357;BME280;47227;46.752;23.576;2023-05-01T09:58:58;96568.92;;;19.98;40.89
61357;BME280;47227;46.752;23.576;2023-05-01T10:01:42;96569.52;;;20.09;40.45
61357;BME280;47227;46.752;23.576;2023-05-01T10:04:09;96571.63;;;20.22;40.21
61357;BME280;47227;46.752;23.576;2023-05-01T10:06:37;96567.50;;;20.32;39.18
61357;BME280;47227;46.752;23.576;2023-05-01T10:09:05;96559.91;;;20.40;39.08
61357;BME280;47227;46.752;23.576;2023-05-01T10:11:47;96560.88;;;20.49;38.06
61357;BME280;47227;46.752;23.576;2023-05-01T10:14:14;96561.45;;;20.41;37.01
61357;BME280;47227;46.752;23.576;2023-05-01T10:16:41;96566.61;;;20.57;38.47
61357;BME280;47227;46.752;23.576;2023-05-01T10:19:08;96571.15;;;20.79;37.85
61357;BME280;47227;46.752;23.576;2023-05-01T10:21:36;96565.27;;;20.98;37.84
61357;BME280;47227;46.752;23.576;2023-05-01T10:24:03;96559.49;;;21.15;36.88
61357;BME280;47227;46.752;23.576;2023-05-01T10:26:32;96558.16;;;21.35;36.02
61357;BME280;47227;46.752;23.576;2023-05-01T10:29:00;96558.54;;;21.49;36.21
61357;BME280;47227;46.752;23.576;2023-05-01T10:31:27;96563.34;;;21.65;36.04
61357;BME280;47227;46.752;23.576;2023-05-01T10:33:55;96560.20;;;21.85;36.05
61357;BME280;47227;46.752;23.576;2023-05-01T10:36:24;96560.04;;;21.98;34.41
61357;BME280;47227;46.752;23.576;2023-05-01T10:38:53;96563.36;;;22.10;33.54
61357;BME280;47227;46.752;23.576;2023-05-01T10:44:25;96558.05;;;22.07;32.85
61357;BME280;47227;46.752;23.576;2023-05-01T10:46:52;96559.11;;;21.86;33.37
61357;BME280;47227;46.752;23.576;2023-05-01T10:49:19;96561.48;;;22.23;33.25
61357;BME280;47227;46.752;23.576;2023-05-01T10:51:59;96560.70;;;22.38;32.31
61357;BME280;47227;46.752;23.576;2023-05-01T10:54:27;96562.21;;;22.79;32.99
61357;BME280;47227;46.752;23.576;2023-05-01T10:56:56;96562.92;;;23.19;32.42
61357;BME280;47227;46.752;23.576;2023-05-01T10:59:24;96560.98;;;23.37;31.05
61357;BME280;47227;46.752;23.576;2023-05-01T11:01:51;96555.91;;;22.88;30.61
61357;BME280;47227;46.752;23.576;2023-05-01T11:04:45;96551.79;;;22.56;30.86
61357;BME280;47227;46.752;23.576;2023-05-01T11:07:16;96554.77;;;23.06;31.69
61357;BME280;47227;46.752;23.576;2023-05-01T11:09:54;96551.70;;;23.51;31.09
61357;BME280;47227;46.752;23.576;2023-05-01T11:12:48;96554.69;;;23.86;29.86
61357;BME280;47227;46.752;23.576;2023-05-01T11:15:30;96557.08;;;24.29;30.15
61357;BME280;47227;46.752;23.576;2023-05-01T11:17:59;96556.38;;;24.59;29.65
61357;BME280;47227;46.752;23.576;2023-05-01T11:20:46;96557.52;;;24.91;29.21
61357;BME280;47227;46.752;23.576;2023-05-01T11:23:16;96552.10;;;24.82;27.94
61357;BME280;47227;46.752;23.576;2023-05-01T11:25:45;96548.16;;;24.63;28.71
61357;BME280;47227;46.752;23.576;2023-05-01T11:28:17;96546.46;;;24.92;28.96
61357;BME280;47227;46.752;23.576;2023-05-01T11:30:44;96540.67;;;25.36;28.95
61357;BME280;47227;46.752;23.576;2023-05-01T11:33:12;96540.95;;;25.50;27.53
61357;BME280;47227;46.752;23.576;2023-05-01T11:35:40;96540.86;;;25.44;27.80
61357;BME280;47227;46.752;23.576;2023-05-01T11:38:15;96536.30;;;25.90;28.00
61357;BME280;47227;46.752;23.576;2023-05-01T11:40:53;96533.50;;;25.93;26.79
61357;BME280;47227;46.752;23.576;2023-05-01T11:43:20;96536.52;;;25.76;26.65
61357;BME280;47227;46.752;23.576;2023-05-01T11:45:51;96536.91;;;25.69;26.29
61357;BME280;47227;46.752;23.576;2023-05-01T11:48:20;96535.39;;;25.39;26.70
61357;BME280;47227;46.752;23.576;2023-05-01T11:50:47;96537.98;;;25.56;26.43
61357;BME280;47227;46.752;23.576;2023-05-01T11:53:15;96534.44;;;25.58;26.11
61357;BME280;47227;46.752;23.576;2023-05-01T11:55:42;96528.77;;;25.66;25.99
61357;BME280;47227;46.752;23.576;2023-05-01T11:58:10;96527.17;;;25.20;26.31
61357;BME280;47227;46.752;23.576;2023-05-01T12:00:39;96521.63;;;25.49;26.44
61357;BME280;47227;46.752;23.576;2023-05-01T12:03:08;96520.30;;;26.24;26.77
61357;BME280;47227;46.752;23.576;2023-05-01T12:05:38;96520.92;;;26.79;25.38
61357;BME280;47227;46.752;23.576;2023-05-01T12:08:13;96515.48;;;27.12;24.36
61357;BME280;47227;46.752;23.576;2023-05-01T12:10:41;96518.58;;;27.63;24.39
61357;BME280;47227;46.752;23.576;2023-05-01T12:13:10;96520.29;;;28.19;24.28
61357;BME280;47227;46.752;23.576;2023-05-01T12:15:41;96515.73;;;28.63;23.87
61357;BME280;47227;46.752;23.576;2023-05-01T12:18:08;96515.87;;;29.03;22.75
61357;BME280;47227;46.752;23.576;2023-05-01T12:20:38;96514.80;;;29.32;22.61
61357;BME280;47227;46.752;23.576;2023-05-01T12:23:06;96517.34;;;29.47;22.46
61357;BME280;47227;46.752;23.576;2023-05-01T12:25:33;96514.59;;;29.49;22.39
61357;BME280;47227;46.752;23.576;2023-05-01T12:28:02;96515.09;;;29.86;22.63
61357;BME280;47227;46.752;23.576;2023-05-01T12:30:29;96513.13;;;30.08;21.89
61357;BME280;47227;46.752;23.576;2023-05-01T12:32:57;96511.36;;;30.41;21.46
61357;BME280;47227;46.752;23.576;2023-05-01T12:35:31;96508.71;;;29.85;20.76
61357;BME280;47227;46.752;23.576;2023-05-01T12:37:58;96507.43;;;29.68;21.11
61357;BME280;47227;46.752;23.576;2023-05-01T12:40:25;96506.27;;;30.15;21.25
61357;BME280;47227;46.752;23.576;2023-05-01T12:42:55;96506.20;;;30.68;21.03
61357;BME280;47227;46.752;23.576;2023-05-01T12:45:23;96501.51;;;30.78;20.35
61357;BME280;47227;46.752;23.576;2023-05-01T12:47:50;96504.82;;;30.82;20.47
61357;BME280;47227;46.752;23.576;2023-05-01T12:50:18;96498.91;;;30.88;19.82
61357;BME280;47227;46.752;23.576;2023-05-01T12:52:44;96497.17;;;31.12;19.90
61357;BME280;47227;46.752;23.576;2023-05-01T12:55:11;96497.11;;;31.34;20.23
61357;BME280;47227;46.752;23.576;2023-05-01T12:57:53;96497.29;;;30.90;19.61
61357;BME280;47227;46.752;23.576;2023-05-01T13:00:20;96489.66;;;30.75;20.09
61357;BME280;47227;46.752;23.576;2023-05-01T13:02:47;96493.73;;;31.19;19.88
61357;BME280;47227;46.752;23.576;2023-05-01T13:05:14;96490.66;;;31.35;19.95
61357;BME280;47227;46.752;23.576;2023-05-01T13:07:46;96494.33;;;31.90;19.64
61357;BME280;47227;46.752;23.576;2023-05-01T13:10:13;96495.12;;;32.10;18.95
61357;BME280;47227;46.752;23.576;2023-05-01T13:12:44;96496.39;;;32.23;18.91
61357;BME280;47227;46.752;23.576;2023-05-01T13:15:19;96494.91;;;32.18;18.70
61357;BME280;47227;46.752;23.576;2023-05-01T13:17:47;96496.42;;;32.28;18.54
61357;BME280;47227;46.752;23.576;2023-05-01T13:20:14;96493.89;;;32.42;18.54
61357;BME280;47227;46.752;23.576;2023-05-01T13:22:48;96491.81;;;32.19;18.21
61357;BME280;47227;46.752;23.576;2023-05-01T13:25:16;96492.34;;;32.16;18.65
61357;BME280;47227;46.752;23.576;2023-05-01T13:27:49;96494.64;;;31.95;18.33
61357;BME280;47227;46.752;23.576;2023-05-01T13:30:19;96491.31;;;32.37;18.28
61357;BME280;47227;46.752;23.576;2023-05-01T13:32:47;96495.65;;;32.37;18.24
61357;BME280;47227;46.752;23.576;2023-05-01T13:35:22;96494.13;;;32.19;17.78
61357;BME280;47227;46.752;23.576;2023-05-01T13:37:50;96492.41;;;31.53;17.87
61357;BME280;47227;46.752;23.576;2023-05-01T13:40:17;96493.14;;;31.84;17.87
61357;BME280;47227;46.752;23.576;2023-05-01T13:42:45;96498.13;;;32.34;18.01
61357;BME280;47227;46.752;23.576;2023-05-01T13:45:12;96497.19;;;32.61;17.56
61357;BME280;47227;46.752;23.576;2023-05-01T13:47:39;96498.09;;;33.02;17.40
61357;BME280;47227;46.752;23.576;2023-05-01T13:50:09;96496.28;;;33.40;16.81
61357;BME280;47227;46.752;23.576;2023-05-01T13:52:41;96500.15;;;33.56;16.78
61357;BME280;47227;46.752;23.576;2023-05-01T13:55:10;96498.91;;;33.33;16.26
61357;BME280;47227;46.752;23.576;2023-05-01T13:57:38;96493.20;;;32.19;16.58
61357;BME280;47227;46.752;23.576;2023-05-01T14:00:10;96488.79;;;31.70;17.02